Terminal Aerodrome Forecast
Issued by NWS Sioux Falls, SD

Home | Current Version | Previous Version | Graphics & Text | Print | Product List | Glossary Off
Versions: 1 2 3 4 5 6 7 8 9 10 11 12 13 14 15 16 17

000
FTUS43 KFSD 191011 AAA
TAFFSD
TAF AMD
KFSD 191011Z 1910/2006 16014KT P6SM OVC012
      TEMPO 1910/1912 OVC009
     FM191500 19012G22KT P6SM OVC020
     FM192000 20013KT P6SM SCT020
     FM200200 22007KT P6SM SCT100=

USA.gov is the U.S. government's official web portal to all federal, state and local government web resources and services.